createdAt,value
2019-03-05T00:00:12.113Z,9.60
2019-03-05T00:02:38.699Z,9.60
2019-03-05T00:05:05.261Z,9.60
2019-03-05T00:07:33.427Z,9.60
2019-03-05T00:10:00.346Z,9.60
2019-03-05T00:12:27.391Z,9.20
2019-03-05T00:14:53.974Z,9.60
2019-03-05T00:17:20.568Z,9.60
2019-03-05T00:19:47.655Z,9.60
2019-03-05T00:22:14.269Z,9.60
2019-03-05T00:24:41.022Z,9.50
2019-03-05T00:27:07.644Z,9.60
2019-03-05T00:29:34.299Z,9.60
2019-03-05T00:32:00.883Z,9.50
2019-03-05T00:34:27.682Z,9.60
2019-03-05T00:36:54.365Z,9.50
2019-03-05T00:39:21.100Z,9.50
2019-03-05T00:41:47.861Z,9.50
2019-03-05T00:44:14.514Z,9.50
2019-03-05T00:46:41.205Z,9.50
2019-03-05T00:49:07.815Z,9.50
2019-03-05T00:51:34.525Z,9.50
2019-03-05T00:54:01.117Z,9.50
2019-03-05T00:56:27.701Z,9.50
2019-03-05T00:58:54.258Z,9.40
2019-03-05T01:01:21.037Z,9.40
2019-03-05T01:03:47.737Z,9.50
2019-03-05T01:06:14.654Z,9.40
2019-03-05T01:08:43.979Z,9.40
2019-03-05T01:11:10.963Z,9.40
2019-03-05T01:13:37.634Z,9.40
2019-03-05T01:16:05.758Z,9.40
2019-03-05T01:18:32.340Z,9.40
2019-03-05T01:20:58.965Z,9.40
2019-03-05T01:23:25.628Z,9.30
2019-03-05T01:25:52.338Z,9.30
2019-03-05T01:28:20.059Z,9.30
2019-03-05T01:31:05.044Z,9.30
2019-03-05T01:33:36.009Z,9.30
2019-03-05T01:36:09.143Z,9.30
2019-03-05T01:38:45.864Z,9.30
2019-03-05T01:41:14.829Z,9.30
2019-03-05T01:43:41.416Z,9.30
2019-03-05T01:46:08.019Z,9.20
2019-03-05T01:48:34.662Z,9.30
2019-03-05T01:51:01.288Z,9.20
2019-03-05T01:53:28.246Z,9.20
2019-03-05T01:55:54.846Z,8.80
2019-03-05T01:58:21.673Z,9.20
2019-03-05T02:00:48.246Z,9.20
2019-03-05T02:03:14.800Z,9.20
2019-03-05T02:05:41.480Z,9.20
2019-03-05T02:08:08.042Z,9.20
2019-03-05T02:10:34.598Z,9.20
2019-03-05T02:13:01.609Z,9.20
2019-03-05T02:15:28.162Z,9.10
2019-03-05T02:17:55.984Z,9.10
2019-03-05T02:20:22.605Z,9.10
2019-03-05T02:22:49.271Z,9.10
2019-03-05T02:25:15.825Z,9.10
2019-03-05T02:27:42.466Z,9.10
2019-03-05T02:30:09.095Z,9.10
2019-03-05T02:32:35.712Z,9.10
2019-03-05T02:35:02.359Z,9.10
2019-03-05T02:37:29.239Z,9.00
2019-03-05T02:39:55.821Z,9.10
2019-03-05T02:42:22.415Z,9.00
2019-03-05T02:44:49.169Z,8.70
2019-03-05T02:47:16.290Z,9.00
2019-03-05T02:52:21.739Z,9.10
2019-03-05T02:54:48.335Z,9.00
2019-03-05T02:57:14.918Z,9.00
2019-03-05T02:59:41.501Z,9.00
2019-03-05T03:02:26.374Z,9.00
2019-03-05T03:04:58.835Z,9.00
2019-03-05T03:07:25.595Z,9.00
2019-03-05T03:09:52.574Z,8.90
2019-03-05T03:12:19.272Z,9.00
2019-03-05T03:14:45.846Z,8.90
2019-03-05T03:17:12.597Z,8.90
2019-03-05T03:19:39.303Z,8.90
2019-03-05T03:22:05.856Z,8.90
2019-03-05T03:24:32.528Z,8.90
2019-03-05T03:26:59.131Z,8.90
2019-03-05T03:29:25.811Z,8.60
2019-03-05T03:31:52.497Z,8.90
2019-03-05T03:34:19.545Z,8.90
2019-03-05T03:36:46.115Z,8.90
2019-03-05T03:39:12.790Z,8.80
2019-03-05T03:41:40.126Z,8.90
2019-03-05T03:44:06.755Z,8.90
2019-03-05T03:46:33.459Z,8.90
2019-03-05T03:49:00.400Z,8.80
2019-03-05T03:51:27.096Z,8.40
2019-03-05T03:53:53.672Z,8.80
2019-03-05T03:56:22.102Z,8.90
2019-03-05T03:58:48.705Z,8.60
2019-03-05T04:01:15.272Z,8.80
2019-03-05T04:03:42.176Z,8.80
2019-03-05T04:06:09.179Z,8.80
2019-03-05T04:08:36.138Z,8.80
2019-03-05T04:11:03.802Z,8.50
2019-03-05T04:13:30.420Z,8.80
2019-03-05T04:15:57.194Z,8.60
2019-03-05T04:18:24.200Z,8.80
2019-03-05T04:20:52.527Z,8.80
2019-03-05T04:23:19.108Z,8.80
2019-03-05T04:25:46.088Z,8.80
2019-03-05T04:28:13.226Z,8.80
2019-03-05T04:30:40.340Z,8.80
2019-03-05T04:33:07.112Z,8.80
2019-03-05T04:35:33.808Z,8.80
2019-03-05T04:38:00.370Z,8.70
2019-03-05T04:40:27.104Z,8.70
2019-03-05T04:42:53.712Z,8.70
2019-03-05T04:45:20.610Z,8.80
2019-03-05T04:47:47.622Z,8.70
2019-03-05T04:50:22.805Z,8.70
2019-03-05T04:52:52.599Z,8.70
2019-03-05T04:55:20.601Z,8.70
2019-03-05T04:57:49.600Z,8.70
2019-03-05T05:00:16.864Z,8.70
2019-03-05T05:02:43.437Z,8.70
2019-03-05T05:05:10.219Z,8.70
2019-03-05T05:07:36.906Z,8.70
2019-03-05T05:10:03.615Z,8.70
2019-03-05T05:12:31.603Z,8.70
2019-03-05T05:14:58.837Z,8.70
2019-03-05T05:17:25.399Z,8.60
2019-03-05T05:19:55.982Z,8.70
2019-03-05T05:22:22.521Z,8.70
2019-03-05T05:24:49.163Z,8.40
2019-03-05T05:27:17.204Z,8.70
2019-03-05T05:29:43.781Z,8.70
2019-03-05T05:32:10.741Z,8.60
2019-03-05T05:34:37.369Z,8.60
2019-03-05T05:37:03.981Z,8.70
2019-03-05T05:39:30.861Z,8.60
2019-03-05T05:41:57.536Z,8.60
2019-03-05T05:44:24.185Z,8.60
2019-03-05T05:46:50.791Z,8.60
2019-03-05T05:49:17.397Z,8.40
2019-03-05T05:51:45.279Z,8.60
2019-03-05T05:54:11.962Z,8.60
2019-03-05T05:56:39.019Z,8.60
2019-03-05T05:59:05.607Z,8.60
2019-03-05T06:01:32.281Z,8.60
2019-03-05T06:04:00.657Z,8.50
2019-03-05T06:06:27.271Z,8.50
2019-03-05T06:08:53.898Z,8.50
2019-03-05T06:11:20.762Z,8.50
2019-03-05T06:13:47.372Z,8.50
2019-03-05T06:16:14.398Z,8.50
2019-03-05T06:18:41.084Z,8.50
2019-03-05T06:21:07.663Z,8.50
2019-03-05T06:23:34.306Z,8.50
2019-03-05T06:26:01.078Z,8.40
2019-03-05T06:28:27.700Z,8.50
2019-03-05T06:30:54.658Z,8.40
2019-03-05T06:33:22.629Z,8.40
2019-03-05T06:35:49.658Z,8.40
2019-03-05T06:38:16.570Z,8.40
2019-03-05T06:40:43.504Z,8.40
2019-03-05T06:43:10.219Z,8.40
2019-03-05T06:45:36.837Z,8.40
2019-03-05T06:48:03.514Z,8.40
2019-03-05T06:50:30.544Z,8.40
2019-03-05T06:52:57.226Z,8.40
2019-03-05T06:55:24.128Z,8.40
2019-03-05T06:57:50.714Z,8.30
2019-03-05T07:00:21.702Z,8.30
2019-03-05T07:02:48.285Z,8.30
2019-03-05T07:05:14.984Z,8.30
2019-03-05T07:07:41.705Z,8.30
2019-03-05T07:10:08.347Z,8.30
2019-03-05T07:12:35.000Z,8.30
2019-03-05T07:15:01.824Z,8.30
2019-03-05T07:17:28.485Z,8.30
2019-03-05T07:19:58.280Z,8.30
2019-03-05T07:22:23.712Z,8.20
2019-03-05T07:24:50.866Z,8.20
2019-03-05T07:27:17.607Z,8.20
2019-03-05T07:29:44.240Z,8.20
2019-03-05T07:32:11.343Z,8.20
2019-03-05T07:34:39.799Z,8.20
2019-03-05T07:37:06.833Z,8.20
2019-03-05T07:39:33.557Z,8.20
2019-03-05T07:42:00.491Z,8.20
2019-03-05T07:44:27.618Z,8.20
2019-03-05T07:46:54.337Z,8.20
2019-03-05T07:49:20.945Z,8.20
2019-03-05T07:51:47.593Z,8.10
2019-03-05T07:54:14.233Z,8.20
2019-03-05T07:56:41.512Z,8.20
2019-03-05T07:59:08.220Z,8.20
2019-03-05T08:01:36.552Z,8.20
2019-03-05T08:04:04.923Z,8.20
2019-03-05T08:06:33.459Z,8.10
2019-03-05T08:09:01.421Z,8.10
2019-03-05T08:11:28.115Z,8.10
2019-03-05T08:13:56.956Z,8.10
2019-03-05T08:16:30.359Z,8.10
2019-03-05T08:18:57.111Z,8.10
2019-03-05T08:21:24.178Z,8.10
2019-03-05T08:23:50.815Z,8.10
2019-03-05T08:26:17.444Z,8.10
2019-03-05T08:28:44.390Z,8.00
2019-03-05T08:31:11.182Z,8.10
2019-03-05T08:33:37.955Z,8.10
2019-03-05T08:36:04.991Z,8.20
2019-03-05T08:38:31.761Z,8.20
2019-03-05T08:40:58.735Z,8.20
2019-03-05T08:43:25.924Z,8.20
2019-03-05T08:45:52.539Z,8.20
2019-03-05T08:48:22.088Z,8.20
2019-03-05T08:50:49.042Z,8.20
2019-03-05T08:53:15.721Z,8.20
2019-03-05T08:55:42.376Z,8.20
2019-03-05T08:58:09.022Z,8.20
2019-03-05T09:00:35.706Z,8.20
2019-03-05T09:03:03.934Z,8.20
2019-03-05T09:05:30.759Z,8.20
2019-03-05T09:08:00.974Z,8.30
2019-03-05T09:10:27.690Z,7.90
2019-03-05T09:12:59.033Z,8.20
2019-03-05T09:15:27.124Z,8.30
2019-03-05T09:17:53.940Z,8.30
2019-03-05T09:20:22.234Z,8.30
2019-03-05T09:22:48.972Z,8.30
2019-03-05T09:25:16.116Z,8.30
2019-03-05T09:27:44.039Z,8.40
2019-03-05T09:30:10.661Z,8.40
2019-03-05T09:32:37.322Z,8.40
2019-03-05T09:35:04.529Z,8.40
2019-03-05T09:37:31.941Z,8.40
2019-03-05T09:39:58.556Z,8.40
2019-03-05T09:42:25.187Z,8.40
2019-03-05T09:44:51.755Z,8.40
2019-03-05T09:47:18.872Z,8.40
2019-03-05T09:49:45.449Z,8.40
2019-03-05T09:52:12.108Z,8.50
2019-03-05T09:54:38.953Z,8.50
2019-03-05T09:57:05.743Z,8.50
2019-03-05T09:59:32.558Z,8.60
2019-03-05T10:01:59.650Z,8.50
2019-03-05T10:04:26.537Z,8.60
2019-03-05T10:06:53.146Z,8.60
2019-03-05T10:09:19.741Z,8.60
2019-03-05T10:11:46.451Z,8.60
2019-03-05T10:14:13.048Z,8.70
2019-03-05T10:16:39.633Z,8.70
2019-03-05T10:19:06.455Z,8.70
2019-03-05T10:21:33.215Z,8.70
2019-03-05T10:24:09.926Z,8.80
2019-03-05T10:26:28.335Z,8.80
2019-03-05T10:28:57.584Z,8.90
2019-03-05T10:31:24.333Z,8.90
2019-03-05T10:33:50.937Z,8.90
2019-03-05T10:36:20.411Z,8.90
2019-03-05T10:38:56.805Z,8.90
2019-03-05T10:41:18.438Z,9.00
2019-03-05T10:43:45.105Z,9.00
2019-03-05T10:46:11.659Z,9.00
2019-03-05T10:48:38.331Z,9.10
2019-03-05T10:51:06.129Z,9.10
2019-03-05T10:53:32.703Z,9.10
2019-03-05T10:56:01.091Z,9.20
2019-03-05T10:58:33.958Z,9.20
2019-03-05T11:00:56.237Z,9.20
2019-03-05T11:03:22.858Z,9.30
2019-03-05T11:05:49.926Z,9.30
2019-03-05T11:08:16.705Z,9.30
2019-03-05T11:10:43.571Z,9.40
2019-03-05T11:13:10.192Z,9.40
2019-03-05T11:15:37.064Z,9.40
2019-03-05T11:18:03.646Z,9.50
2019-03-05T11:20:30.249Z,9.50
2019-03-05T11:22:56.932Z,9.50
2019-03-05T11:25:23.522Z,9.60
2019-03-05T11:27:50.432Z,9.60
2019-03-05T11:30:17.036Z,9.60
2019-03-05T11:32:43.636Z,9.70
2019-03-05T11:35:10.230Z,9.60
2019-03-05T11:37:37.196Z,9.70
2019-03-05T11:40:03.848Z,9.80
2019-03-05T11:42:30.442Z,9.80
2019-03-05T11:45:07.213Z,9.80
2019-03-05T11:47:25.558Z,9.80
2019-03-05T11:49:52.205Z,9.90
2019-03-05T11:52:18.891Z,9.90
2019-03-05T11:54:45.608Z,10.00
2019-03-05T11:57:12.213Z,10.00
2019-03-05T11:59:38.906Z,10.00
2019-03-05T12:02:05.500Z,10.10
2019-03-05T12:04:32.236Z,10.10
2019-03-05T12:06:58.976Z,10.10
2019-03-05T12:09:25.813Z,10.20
2019-03-05T12:11:52.420Z,10.20
2019-03-05T12:14:19.545Z,10.30
2019-03-05T12:16:46.362Z,10.30
2019-03-05T12:19:13.260Z,10.30
2019-03-05T12:21:41.685Z,10.40
2019-03-05T12:24:08.277Z,10.40
2019-03-05T12:26:38.267Z,10.40
2019-03-05T12:29:05.280Z,10.50
2019-03-05T12:31:32.139Z,10.50
2019-03-05T12:33:58.745Z,10.50
2019-03-05T12:36:25.415Z,10.50
2019-03-05T12:38:51.981Z,10.60
2019-03-05T12:41:18.582Z,10.60
2019-03-05T12:43:45.314Z,10.70
2019-03-05T12:46:11.921Z,10.70
2019-03-05T12:48:40.285Z,10.70
2019-03-05T12:51:08.293Z,10.70
2019-03-05T12:53:36.635Z,10.80
2019-03-05T12:56:03.908Z,10.80
2019-03-05T12:58:30.638Z,10.80
2019-03-05T13:00:57.573Z,10.90
2019-03-05T13:03:24.186Z,10.90
2019-03-05T13:05:50.851Z,10.90
2019-03-05T13:10:58.785Z,10.80
2019-03-05T13:13:25.262Z,11.00
2019-03-05T13:15:52.919Z,11.00
2019-03-05T13:18:20.406Z,11.00
2019-03-05T13:20:47.234Z,11.00
2019-03-05T13:23:13.879Z,11.00
2019-03-05T13:25:41.684Z,11.10
2019-03-05T13:28:08.906Z,11.10
2019-03-05T13:30:35.540Z,11.10
2019-03-05T13:33:02.330Z,11.20
2019-03-05T13:35:30.285Z,11.20
2019-03-05T13:37:58.881Z,11.20
2019-03-05T13:40:25.770Z,11.20
2019-03-05T13:42:52.521Z,11.20
2019-03-05T13:45:20.397Z,11.30
2019-03-05T13:47:48.293Z,11.30
2019-03-05T13:50:14.968Z,11.30
2019-03-05T13:52:41.872Z,11.30
2019-03-05T13:55:09.842Z,11.30
2019-03-05T13:57:37.592Z,11.30
2019-03-05T14:00:07.168Z,11.40
2019-03-05T14:02:33.425Z,11.40
2019-03-05T14:05:00.028Z,11.40
2019-03-05T14:07:26.942Z,11.40
2019-03-05T14:09:53.902Z,11.40
2019-03-05T14:12:20.716Z,11.50
2019-03-05T14:14:47.318Z,11.50
2019-03-05T14:17:24.922Z,11.50
2019-03-05T14:19:51.899Z,11.50
2019-03-05T14:22:20.344Z,11.50
2019-03-05T14:24:58.284Z,11.60
2019-03-05T14:27:18.745Z,11.60
2019-03-05T14:29:45.368Z,11.60
2019-03-05T14:32:11.961Z,11.60
2019-03-05T14:34:38.576Z,11.60
2019-03-05T14:37:05.167Z,11.60
2019-03-05T14:42:11.380Z,11.40
2019-03-05T14:44:40.239Z,11.70
2019-03-05T14:47:06.605Z,11.70
2019-03-05T14:49:33.320Z,11.70
2019-03-05T14:52:00.036Z,11.70
2019-03-05T14:54:26.582Z,11.80
2019-03-05T14:56:53.170Z,11.80
2019-03-05T14:59:19.837Z,11.70
2019-03-05T15:01:46.462Z,11.80
2019-03-05T15:04:13.085Z,11.80
2019-03-05T15:06:40.049Z,11.80
2019-03-05T15:09:06.949Z,11.80
2019-03-05T15:11:33.727Z,11.80
2019-03-05T15:14:00.291Z,11.80
2019-03-05T15:16:29.394Z,11.90
2019-03-05T15:18:55.776Z,11.90
2019-03-05T15:21:22.426Z,11.90
2019-03-05T15:23:49.021Z,11.90
2019-03-05T15:26:15.680Z,11.90
2019-03-05T15:28:55.463Z,11.90
2019-03-05T15:31:11.089Z,11.90
2019-03-05T15:33:39.054Z,11.90
2019-03-05T15:36:05.676Z,11.90
2019-03-05T15:38:32.295Z,11.90
2019-03-05T15:40:59.078Z,11.90
2019-03-05T15:43:25.701Z,11.90
2019-03-05T15:45:52.868Z,11.90
2019-03-05T15:48:19.544Z,11.90
2019-03-05T15:50:46.724Z,11.90
2019-03-05T15:53:14.475Z,11.90
2019-03-05T15:55:43.344Z,11.90
2019-03-05T15:58:09.932Z,11.90
2019-03-05T16:00:36.927Z,11.90
2019-03-05T16:03:03.614Z,11.90
2019-03-05T16:05:31.398Z,11.90
2019-03-05T16:08:00.739Z,11.90
2019-03-05T16:10:26.547Z,11.90
2019-03-05T16:12:53.482Z,11.90
2019-03-05T16:15:21.733Z,11.90
2019-03-05T16:17:48.460Z,11.90
2019-03-05T16:20:15.068Z,11.90
2019-03-05T16:22:41.730Z,12.00
2019-03-05T16:25:09.921Z,12.00
2019-03-05T16:27:37.251Z,11.90
2019-03-05T16:30:04.213Z,11.90
2019-03-05T16:32:40.396Z,11.90
2019-03-05T16:35:29.451Z,12.00
2019-03-05T16:38:15.012Z,12.00
2019-03-05T16:41:11.544Z,12.00
2019-03-05T16:44:00.614Z,11.90
2019-03-05T16:46:46.710Z,12.00
2019-03-05T16:49:31.870Z,12.00
2019-03-05T16:52:33.554Z,11.90
2019-03-05T16:55:22.773Z,12.00
2019-03-05T16:58:18.025Z,11.90
2019-03-05T17:01:10.183Z,11.90
2019-03-05T17:03:54.744Z,11.90
2019-03-05T17:06:44.801Z,11.90
2019-03-05T17:09:39.368Z,11.90
2019-03-05T17:12:05.977Z,11.90
2019-03-05T17:14:34.655Z,11.90
2019-03-05T17:17:01.247Z,11.90
2019-03-05T17:19:28.199Z,11.90
2019-03-05T17:21:55.787Z,11.90
2019-03-05T17:24:22.767Z,11.90
2019-03-05T17:26:49.383Z,11.90
2019-03-05T17:29:16.319Z,11.90
2019-03-05T17:31:42.947Z,11.90
2019-03-05T17:34:09.535Z,11.90
2019-03-05T17:36:36.739Z,11.90
2019-03-05T17:39:04.417Z,11.90
2019-03-05T17:41:31.038Z,11.90
2019-03-05T17:43:57.623Z,11.80
2019-03-05T17:46:24.207Z,11.80
2019-03-05T17:48:50.788Z,11.80
2019-03-05T17:51:17.369Z,11.70
2019-03-05T17:53:44.444Z,11.80
2019-03-05T17:56:11.025Z,11.80
2019-03-05T17:58:37.715Z,11.70
2019-03-05T18:01:04.760Z,11.80
2019-03-05T18:03:31.731Z,11.80
2019-03-05T18:05:58.306Z,11.70
2019-03-05T18:08:24.944Z,11.70
2019-03-05T18:10:51.556Z,11.70
2019-03-05T18:13:19.307Z,11.70
2019-03-05T18:15:46.113Z,11.70
2019-03-05T18:18:13.145Z,11.70
2019-03-05T18:20:39.765Z,11.70
2019-03-05T18:23:09.431Z,11.70
2019-03-05T18:25:36.191Z,11.60
2019-03-05T18:28:02.745Z,11.60
2019-03-05T18:30:29.374Z,11.60
2019-03-05T18:32:56.154Z,11.60
2019-03-05T18:35:23.015Z,11.60
2019-03-05T18:37:49.628Z,11.60
2019-03-05T18:40:16.324Z,11.60
2019-03-05T18:42:42.896Z,11.50
2019-03-05T18:45:09.509Z,11.50
2019-03-05T18:47:36.786Z,11.50
2019-03-05T18:50:03.488Z,11.50
2019-03-05T18:52:30.099Z,11.50
2019-03-05T18:54:56.926Z,11.50
2019-03-05T18:57:23.942Z,11.40
2019-03-05T18:59:52.686Z,11.40
2019-03-05T19:02:19.400Z,11.40
2019-03-05T19:04:46.044Z,11.40
2019-03-05T19:07:12.947Z,11.40
2019-03-05T19:09:39.596Z,11.40
2019-03-05T19:12:07.344Z,11.30
2019-03-05T19:14:33.980Z,10.90
2019-03-05T19:17:00.625Z,11.30
2019-03-05T19:19:27.213Z,11.30
2019-03-05T19:21:54.335Z,11.30
2019-03-05T19:24:22.881Z,11.30
2019-03-05T19:26:49.401Z,11.20
2019-03-05T19:29:16.813Z,11.20
2019-03-05T19:31:45.777Z,11.20
2019-03-05T19:34:12.396Z,11.10
2019-03-05T19:36:39.052Z,11.20
2019-03-05T19:39:05.795Z,11.20
2019-03-05T19:41:32.434Z,11.20
2019-03-05T19:43:59.011Z,11.20
2019-03-05T19:46:25.639Z,11.10
2019-03-05T19:48:52.243Z,11.10
2019-03-05T19:51:18.967Z,11.10
2019-03-05T19:53:47.741Z,11.10
2019-03-05T19:56:14.339Z,11.10
2019-03-05T19:58:42.051Z,11.10
2019-03-05T20:01:11.250Z,11.10
2019-03-05T20:03:37.943Z,11.10
2019-03-05T20:06:04.647Z,11.00
2019-03-05T20:08:39.458Z,11.00
2019-03-05T20:11:02.025Z,11.00
2019-03-05T20:13:30.659Z,11.00
2019-03-05T20:15:57.470Z,11.00
2019-03-05T20:18:24.278Z,11.00
2019-03-05T20:20:50.879Z,11.00
2019-03-05T20:23:19.483Z,11.00
2019-03-05T20:25:46.059Z,11.00
2019-03-05T20:28:12.650Z,11.00
2019-03-05T20:30:39.229Z,11.00
2019-03-05T20:33:06.099Z,11.00
2019-03-05T20:35:33.020Z,10.90
2019-03-05T20:38:00.001Z,10.90
2019-03-05T20:40:26.627Z,10.90
2019-03-05T20:42:55.203Z,10.90
2019-03-05T20:45:21.679Z,10.90
2019-03-05T20:47:48.336Z,10.90
2019-03-05T20:50:15.018Z,10.90
2019-03-05T20:52:41.965Z,10.90
2019-03-05T20:55:09.180Z,10.90
2019-03-05T20:57:36.250Z,10.90
2019-03-05T21:00:03.289Z,10.90
2019-03-05T21:02:31.308Z,10.90
2019-03-05T21:04:58.014Z,10.90
2019-03-05T21:07:29.825Z,10.90
2019-03-05T21:09:57.166Z,10.90
2019-03-05T21:12:23.851Z,10.90
2019-03-05T21:14:50.490Z,10.80
2019-03-05T21:17:18.702Z,10.80
2019-03-05T21:19:45.494Z,10.80
2019-03-05T21:22:12.529Z,10.80
2019-03-05T21:24:43.973Z,10.80
2019-03-05T21:27:10.579Z,10.80
2019-03-05T21:29:37.313Z,10.80
2019-03-05T21:32:03.991Z,10.80
2019-03-05T21:34:30.864Z,10.80
2019-03-05T21:36:58.954Z,10.80
2019-03-05T21:39:25.888Z,10.80
2019-03-05T21:41:52.468Z,10.80
2019-03-05T21:44:19.189Z,10.80
2019-03-05T21:46:45.906Z,10.80
2019-03-05T21:49:13.830Z,10.80
2019-03-05T21:51:40.424Z,10.80
2019-03-05T21:54:07.100Z,10.80
2019-03-05T21:56:34.132Z,10.80
2019-03-05T21:59:00.728Z,10.80
2019-03-05T22:01:27.338Z,10.80
2019-03-05T22:03:53.903Z,10.70
2019-03-05T22:06:20.703Z,10.80
2019-03-05T22:08:47.308Z,10.70
2019-03-05T22:11:13.915Z,10.80
2019-03-05T22:13:40.471Z,10.80
2019-03-05T22:16:07.146Z,10.70
2019-03-05T22:18:33.738Z,10.70
2019-03-05T22:21:00.375Z,10.70
2019-03-05T22:23:26.993Z,10.70
2019-03-05T22:25:54.349Z,10.60
2019-03-05T22:28:20.904Z,10.70
2019-03-05T22:30:47.521Z,10.80
2019-03-05T22:33:14.337Z,10.70
2019-03-05T22:35:42.317Z,10.70
2019-03-05T22:38:09.292Z,10.70
2019-03-05T22:40:36.169Z,10.70
2019-03-05T22:43:02.762Z,10.70
2019-03-05T22:45:30.027Z,10.70
2019-03-05T22:47:56.620Z,10.70
2019-03-05T22:50:23.211Z,10.70
2019-03-05T22:52:49.973Z,10.70
2019-03-05T22:55:16.930Z,10.70
2019-03-05T22:57:43.534Z,10.70
2019-03-05T23:00:11.566Z,10.70
2019-03-05T23:02:38.153Z,10.70
2019-03-05T23:05:04.720Z,10.70
2019-03-05T23:07:31.415Z,10.70
2019-03-05T23:09:58.024Z,10.70
2019-03-05T23:12:24.695Z,10.70
2019-03-05T23:14:51.496Z,10.60
2019-03-05T23:17:18.268Z,10.60
2019-03-05T23:19:44.938Z,10.70
2019-03-05T23:22:11.956Z,10.60
2019-03-05T23:24:40.596Z,10.60
2019-03-05T23:27:07.184Z,10.60
2019-03-05T23:29:40.722Z,10.60
2019-03-05T23:32:08.516Z,10.60
2019-03-05T23:34:36.324Z,10.60
2019-03-05T23:37:04.734Z,10.60
2019-03-05T23:39:32.507Z,10.60
2019-03-05T23:41:59.032Z,10.60
2019-03-05T23:44:25.706Z,10.60
2019-03-05T23:46:52.412Z,10.60
2019-03-05T23:49:19.039Z,10.60
2019-03-05T23:51:45.608Z,10.60
2019-03-05T23:54:12.192Z,10.60
2019-03-05T23:56:39.990Z,10.60
2019-03-05T23:59:06.597Z,10.60
